Terminal Aerodrome Forecast
Issued by NWS Flagstaff, AZ

Home | Current Version | Previous Version | Text Only | Print | Product List | Glossary On
Versions: 1 2 3 4 5 6 7 8 9 10 11 12 13 14 15 16 17 18 19 20 21 22
000
FTUS45 KFGZ 280500
TAFINW
TAF
KINW 280520Z 2806/2906 VRB05KT P6SM FEW110
     FM281000 12006KT P6SM BKN200
     FM282000 VRB15G35KT P6SM VCTS BKN100CB BKN150
     FM290400 VRB06KT P6SM FEW110=

USA.gov is the U.S. government's official web portal to all federal, state and local government web resources and services.